HSSS Airport Information

Runway Information
Runway 18 Length 9751 ft width 148 ft
Elevation 1265 ft Threshold 0 ft Heading 177
Runway 36 Length 9751 ft Width 148 ft
Elevation 1260 ft Threshold 0 ft Heading 357
Airport Frequencies
Type APP Name Khartoum A Frequency 124.7 MHZ
Type EMR Name FIRE Frequency 121.9 MHZ
Type North Area Name North Sect Frequency 125.4 MHZ
Type South Area Name South Sect Frequency 127.3 MHZ
Type TWR Name Khartoum T Frequency 119.2 MHZ
Airport Navaids
Type VOR-DME Name Khartoum Frequency 112100 KHZ
Airport Weather Information & NOTAM
ADDS - METARS form results

(2047 UTC 21 March 2019)
Data provider http://aviationweather.gov/metar/data/
 
METAR text: HSSS 212030Z 02014KT CAVOK 31/M06 Q1010 NOSIG
Conditions at: HSSS (KHARTOUM (CIV/MI, SD) observed 2030 UTC 21 March 2019
Temperature: 31.0°C (88°F)
Dewpoint: -6.0°C (21°F) [RH =  9%]
Pressure (altimeter): 29.82 inches Hg (1010.0 mb)
Winds: from the NNE (20 degrees) at 16 MPH (14 knots; 7.2 m/s)
Visibility: 6 or more miles (10+ km)
Ceiling: ceiling and visibility are OK
Clouds: unknown
Weather: no significant weather observed at this time

METAR text: HSSS 212000Z 36014KT CAVOK 32/M06 Q1010 NOSIG
Conditions at: HSSS (KHARTOUM (CIV/MI, SD) observed 2000 UTC 21 March 2019
Temperature: 32.0°C (90°F)
Dewpoint: -6.0°C (21°F) [RH =  8%]
Pressure (altimeter): 29.82 inches Hg (1010.0 mb)
Winds: from the N (360 degrees) at 16 MPH (14 knots; 7.2 m/s)
Visibility: 6 or more miles (10+ km)
Ceiling: ceiling and visibility are OK
Clouds: unknown
Weather: no significant weather observed at this time

Forecast for: HSSS (KHARTOUM (CIV/MI, SD)
Text: TAF HSSS 211700Z 2118/2224 02010G20KT CAVOK
Forecast period: 1800 UTC 21 March 2019 to 0000 UTC 23 March 2019
Forecast type: FROM: standard forecast or significant change
Winds: from the NNE (20 degrees) at 12 MPH (10 knots; 5.1 m/s)
gusting to 23 MPH (20 knots; 10.3 m/s)
Visibility: 6 or more miles 10+ km)
Ceiling: unknown
Clouds: missing
Weather: NSW  (no significant weather)
Text: TEMPO 2203/2207 4000 BLSA
Forecast period: 0300 to 0700 UTC 22 March 2019
Forecast type: TEMPORARY: The following changes expected for less than half the time period
Visibility: 2.49 miles (4.01 km)
Ceiling: unknown
Clouds: missing
Weather: BLSA  (blowing sand)